Torm Republican — OYNE2 — position and weather

sailwx.info

Track history (hours):
 
Tides and Currents Weather Stations Pressure Air Temp Water Temp Dewpoint Dewpoint Depression Visibility Wind Speed Wind Dir Waves Ship Positions

Torm Republican

Last reported at 2017-Nov-19 23:30 UTC. Time now 2017-Nov-22 16:44 UTC.
Position N 29°18' W 116°46'.

Length 183 m; draft 8.5 m.

Type: Tanker. MMSI: 220560000.

Date/timePositionNaut miles runAvg speedWind from/ knotsBaromVisibWave heightAir tempDewpointWater temp
2017-Nov-19 23:30N 29°18' W 116°46'714.2
2017-Nov-19 23:00N 29°24' W 116°49'714.0
2017-Nov-19 22:30N 29°31' W 116°51'714.1
2017-Nov-19 21:59N 29°38' W 116°52'2014.1
2017-Nov-19 20:35N 29°58' W 116°55'113.7
2017-Nov-19 20:30N 29°59' W 116°55'713.5
2017-Nov-19 19:59N 30°06' W 116°56'2314.4
2017-Nov-19 18:22N 30°29' W 116°60'2913.9
2017-Nov-19 16:15N 30°58' W 117°04'414.0
2017-Nov-19 15:57N 31°02' W 117°05'614.1
2017-Nov-19 15:30N 31°09' W 117°06'2114.3
2017-Nov-19 14:01N 31°30' W 117°09'014.3
2017-Nov-19 14:00N 31°30' W 117°09'714.5
2017-Nov-19 13:30N 31°37' W 117°10'814.3
2017-Nov-19 12:56N 31°45' W 117°12'614.3
2017-Nov-19 12:30N 31°52' W 117°13'714.3
2017-Nov-19 12:00N 31°58' W 117°14'1811.0
2017-Nov-19 10:22N 32°16' W 117°08'510.8
2017-Nov-19 09:54N 32°21' W 117°07'0 0.0
2017-Nov-17 12:51N 32°21' W 117°07'0 0.0
2017-Nov-17 08:32N 32°21' W 117°07'0 0.0
2017-Nov-17 02:50N 32°21' W 117°07'0 0.0
2017-Nov-17 02:26N 32°21' W 117°07'0 0.0
2017-Nov-17 01:08N 32°21' W 117°07'0 0.0
2017-Nov-16 21:50N 32°21' W 117°07'0 0.1
2017-Nov-16 21:26N 32°21' W 117°07'0 0.0
2017-Nov-16 20:08N 32°21' W 117°07'0 0.0
2017-Nov-16 18:38N 32°21' W 117°07'0 0.0
2017-Nov-16 10:32N 32°21' W 117°07'0 0.5
2017-Nov-16 10:26N 32°21' W 117°07'0 0.0
2017-Nov-16 05:20N 32°21' W 117°07'0 0.0
2017-Nov-16 04:56N 32°21' W 117°07'0 0.0
2017-Nov-16 01:26N 32°21' W 117°07'0 0.0
2017-Nov-15 23:38N 32°21' W 117°07'0 0.0
2017-Nov-15 23:26N 32°21' W 117°07'0 0.0
2017-Nov-15 22:55N 32°21' W 117°07'0 0.0
2017-Nov-15 22:25N 32°21' W 117°07'0 0.0
2017-Nov-15 19:49N 32°21' W 117°07'0 0.0
2017-Nov-15 08:55N 32°21' W 117°07'0 0.0
2017-Nov-15 01:19N 32°21' W 117°07'0 0.0
2017-Nov-15 00:37N 32°21' W 117°07'0 0.0
2017-Nov-15 00:07N 32°21' W 117°07'0 0.0
2017-Nov-14 23:37N 32°21' W 117°07'0 0.1
2017-Nov-14 23:13N 32°21' W 117°07'0 0.0
2017-Nov-14 22:49N 32°21' W 117°07'0 0.0
2017-Nov-14 22:25N 32°21' W 117°07'0 0.0
2017-Nov-14 21:55N 32°21' W 117°07'0 0.0
2017-Nov-14 21:19N 32°21' W 117°07'0 0.0
2017-Nov-14 20:49N 32°21' W 117°07'0 0.0
2017-Nov-14 19:25N 32°21' W 117°07'0 0.0
2017-Nov-14 18:12N 32°21' W 117°07'0 0.9
2017-Nov-14 18:00N 32°21' W 117°07'2 3.0
2017-Nov-14 17:29N 32°19' W 117°07'3 5.1
2017-Nov-14 16:57N 32°17' W 117°08'2 4.5
2017-Nov-14 16:30N 32°15' W 117°09'3 6.5
2017-Nov-14 16:00N 32°15' W 117°13'8 9.8
2017-Nov-14 15:14N 32°10' W 117°19'512.4
2017-Nov-14 14:50N 32°06' W 117°23'612.9
2017-Nov-14 14:23N 32°01' W 117°27'513.4
2017-Nov-14 14:00N 31°57' W 117°30'1313.2
2017-Nov-14 13:03N 31°46' W 117°38'012.6
2017-Nov-14 13:00N 31°46' W 117°39'613.0
2017-Nov-14 12:30N 31°40' W 117°43'612.7
2017-Nov-14 12:00N 31°35' W 117°47'612.7
2017-Nov-14 11:30N 31°30' W 117°51'612.4
2017-Nov-14 10:59N 31°25' W 117°56'612.5
2017-Nov-14 10:30N 31°20' W 118°00'612.3
2017-Nov-14 09:59N 31°15' W 118°04'812.3
2017-Nov-14 09:21N 31°08' W 118°09'712.3
2017-Nov-14 08:45N 31°02' W 118°14'312.2
2017-Nov-14 08:30N 30°59' W 118°16'612.2
2017-Nov-14 07:58N 30°54' W 118°19'5612.2
2017-Nov-14 03:22N 30°34' W 119°20'512.9
2017-Nov-14 03:00N 30°32' W 119°26'455 9.2
2017-Nov-12 01:21N 37°22' W 123°24'513.2
2017-Nov-12 01:00N 37°25' W 123°20'713.1
2017-Nov-12 00:30N 37°29' W 123°13'713.6
2017-Nov-12 00:00N 37°33' W 123°06'713.5
2017-Nov-11 23:30N 37°36' W 122°59'713.8
2017-Nov-11 23:00N 37°40' W 122°52'713.1
2017-Nov-11 22:30N 37°43' W 122°45'510.0
2017-Nov-11 22:00N 37°46' W 122°39'611.9
2017-Nov-11 21:30N 37°48' W 122°32'510.7
2017-Nov-11 21:01N 37°51' W 122°26'3 5.7
2017-Nov-11 20:31N 37°53' W 122°26'4 7.4
2017-Nov-11 20:00N 37°57' W 122°27'611.2
2017-Nov-11 19:30N 38°02' W 122°23'510.2
2017-Nov-11 19:00N 38°03' W 122°17'1 1.4
2017-Nov-11 18:30N 38°03' W 122°16'0 0.0
2017-Nov-11 18:00N 38°03' W 122°16'0 0.0
2017-Nov-11 17:30N 38°03' W 122°16'  
Track history (hours):
 
Tides and Currents Weather Stations Pressure Air Temp Water Temp Dewpoint Dewpoint Depression Visibility Wind Speed Wind Dir Waves Ship Positions

Torm Republican

Last reported at 2017-Nov-19 23:30 UTC. Time now 2017-Nov-22 16:44 UTC.
Position N 29°18' W 116°46'.

Length 183 m; draft 8.5 m.

Type: Tanker. MMSI: 220560000.

Date/timePositionNaut miles runAvg speedWind from/ knotsBaromVisibWave heightAir tempDewpointWater temp
2017-Nov-19 23:30N 29°18' W 116°46'714.2
2017-Nov-19 23:00N 29°24' W 116°49'714.0
2017-Nov-19 22:30N 29°31' W 116°51'714.1
2017-Nov-19 21:59N 29°38' W 116°52'2014.1
2017-Nov-19 20:35N 29°58' W 116°55'113.7
2017-Nov-19 20:30N 29°59' W 116°55'713.5
2017-Nov-19 19:59N 30°06' W 116°56'2314.4
2017-Nov-19 18:22N 30°29' W 116°60'2913.9
2017-Nov-19 16:15N 30°58' W 117°04'414.0
2017-Nov-19 15:57N 31°02' W 117°05'614.1
2017-Nov-19 15:30N 31°09' W 117°06'2114.3
2017-Nov-19 14:01N 31°30' W 117°09'014.3
2017-Nov-19 14:00N 31°30' W 117°09'714.5
2017-Nov-19 13:30N 31°37' W 117°10'814.3
2017-Nov-19 12:56N 31°45' W 117°12'614.3
2017-Nov-19 12:30N 31°52' W 117°13'714.3
2017-Nov-19 12:00N 31°58' W 117°14'1811.0
2017-Nov-19 10:22N 32°16' W 117°08'510.8
2017-Nov-19 09:54N 32°21' W 117°07'0 0.0
2017-Nov-17 12:51N 32°21' W 117°07'0 0.0
2017-Nov-17 08:32N 32°21' W 117°07'0 0.0
2017-Nov-17 02:50N 32°21' W 117°07'0 0.0
2017-Nov-17 02:26N 32°21' W 117°07'0 0.0
2017-Nov-17 01:08N 32°21' W 117°07'0 0.0
2017-Nov-16 21:50N 32°21' W 117°07'0 0.1
2017-Nov-16 21:26N 32°21' W 117°07'0 0.0
2017-Nov-16 20:08N 32°21' W 117°07'0 0.0
2017-Nov-16 18:38N 32°21' W 117°07'0 0.0
2017-Nov-16 10:32N 32°21' W 117°07'0 0.5
2017-Nov-16 10:26N 32°21' W 117°07'0 0.0
2017-Nov-16 05:20N 32°21' W 117°07'0 0.0
2017-Nov-16 04:56N 32°21' W 117°07'0 0.0
2017-Nov-16 01:26N 32°21' W 117°07'0 0.0
2017-Nov-15 23:38N 32°21' W 117°07'0 0.0
2017-Nov-15 23:26N 32°21' W 117°07'0 0.0
2017-Nov-15 22:55N 32°21' W 117°07'0 0.0
2017-Nov-15 22:25N 32°21' W 117°07'0 0.0
2017-Nov-15 19:49N 32°21' W 117°07'0 0.0
2017-Nov-15 08:55N 32°21' W 117°07'0 0.0
2017-Nov-15 01:19N 32°21' W 117°07'0 0.0
2017-Nov-15 00:37N 32°21' W 117°07'0 0.0
2017-Nov-15 00:07N 32°21' W 117°07'0 0.0
2017-Nov-14 23:37N 32°21' W 117°07'0 0.1
2017-Nov-14 23:13N 32°21' W 117°07'0 0.0
2017-Nov-14 22:49N 32°21' W 117°07'0 0.0
2017-Nov-14 22:25N 32°21' W 117°07'0 0.0
2017-Nov-14 21:55N 32°21' W 117°07'0 0.0
2017-Nov-14 21:19N 32°21' W 117°07'0 0.0
2017-Nov-14 20:49N 32°21' W 117°07'0 0.0
2017-Nov-14 19:25N 32°21' W 117°07'0 0.0
2017-Nov-14 18:12N 32°21' W 117°07'0 0.9
2017-Nov-14 18:00N 32°21' W 117°07'2 3.0
2017-Nov-14 17:29N 32°19' W 117°07'3 5.1
2017-Nov-14 16:57N 32°17' W 117°08'2 4.5
2017-Nov-14 16:30N 32°15' W 117°09'3 6.5
2017-Nov-14 16:00N 32°15' W 117°13'8 9.8
2017-Nov-14 15:14N 32°10' W 117°19'512.4
2017-Nov-14 14:50N 32°06' W 117°23'612.9
2017-Nov-14 14:23N 32°01' W 117°27'513.4
2017-Nov-14 14:00N 31°57' W 117°30'1313.2
2017-Nov-14 13:03N 31°46' W 117°38'012.6
2017-Nov-14 13:00N 31°46' W 117°39'613.0
2017-Nov-14 12:30N 31°40' W 117°43'612.7
2017-Nov-14 12:00N 31°35' W 117°47'612.7
2017-Nov-14 11:30N 31°30' W 117°51'612.4
2017-Nov-14 10:59N 31°25' W 117°56'612.5
2017-Nov-14 10:30N 31°20' W 118°00'612.3
2017-Nov-14 09:59N 31°15' W 118°04'812.3
2017-Nov-14 09:21N 31°08' W 118°09'712.3
2017-Nov-14 08:45N 31°02' W 118°14'312.2
2017-Nov-14 08:30N 30°59' W 118°16'612.2
2017-Nov-14 07:58N 30°54' W 118°19'5612.2
2017-Nov-14 03:22N 30°34' W 119°20'512.9
2017-Nov-14 03:00N 30°32' W 119°26'455 9.2
2017-Nov-12 01:21N 37°22' W 123°24'513.2
2017-Nov-12 01:00N 37°25' W 123°20'713.1
2017-Nov-12 00:30N 37°29' W 123°13'713.6
2017-Nov-12 00:00N 37°33' W 123°06'713.5
2017-Nov-11 23:30N 37°36' W 122°59'713.8
2017-Nov-11 23:00N 37°40' W 122°52'713.1
2017-Nov-11 22:30N 37°43' W 122°45'510.0
2017-Nov-11 22:00N 37°46' W 122°39'611.9
2017-Nov-11 21:30N 37°48' W 122°32'510.7
2017-Nov-11 21:01N 37°51' W 122°26'3 5.7
2017-Nov-11 20:31N 37°53' W 122°26'4 7.4
2017-Nov-11 20:00N 37°57' W 122°27'611.2
2017-Nov-11 19:30N 38°02' W 122°23'510.2
2017-Nov-11 19:00N 38°03' W 122°17'1 1.4
2017-Nov-11 18:30N 38°03' W 122°16'0 0.0
2017-Nov-11 18:00N 38°03' W 122°16'0 0.0
2017-Nov-11 17:30N 38°03' W 122°16'  

Dump ship's entire track history